Current Weather

Maradi

Maradi, Niger (DRRM)

Report from: Tuesday, February 27, 2024 12:00 PM WAT
Current time: Tuesday, February 27, 2024 12:28 PM WAT

Nearby weather – Weather history – Daily summaries
Weather forecast

Temperature35.0°C (95.0°F)
Heat index32.4°C (90.2°F)
Dew point-1.0°C (30.2°F)
Winds 10 kts (5.1 m/s, 11.5 mph) East (80°)
Clouds Sky clear
Altimeter29.91 in.Hg (1013 mB)
Relative humidity10 %
Density altitude2,371 ft. (723 m)
Remarks Ceiling and visibility OK
Flight conditions Visual Meteorological Conditions
Raw dataDRRM 271100Z 08010KT CAVOK 35/M01 Q1013
An error has occurred. This application may no longer respond until reloaded. Reload 🗙